sensor_id;sensor_type;location;lat;lon;timestamp;P1;durP1;ratioP1;P2;durP2;ratioP2
49109;SDS011;34921;52.320;16.142;2022-10-30T00:01:13;51.83;;;33.00;;
49109;SDS011;34921;52.320;16.142;2022-10-30T00:03:42;50.75;;;31.40;;
49109;SDS011;34921;52.320;16.142;2022-10-30T00:06:10;53.00;;;32.48;;
49109;SDS011;34921;52.320;16.142;2022-10-30T00:08:38;54.00;;;33.28;;
49109;SDS011;34921;52.320;16.142;2022-10-30T00:11:07;56.07;;;32.20;;
49109;SDS011;34921;52.320;16.142;2022-10-30T00:13:36;52.80;;;32.15;;
49109;SDS011;34921;52.320;16.142;2022-10-30T00:16:05;51.97;;;32.10;;
49109;SDS011;34921;52.320;16.142;2022-10-30T00:18:35;56.35;;;31.85;;
49109;SDS011;34921;52.320;16.142;2022-10-30T00:21:05;52.60;;;30.27;;
49109;SDS011;34921;52.320;16.142;2022-10-30T00:23:34;53.20;;;31.35;;
49109;SDS011;34921;52.320;16.142;2022-10-30T00:26:02;50.67;;;31.37;;
49109;SDS011;34921;52.320;16.142;2022-10-30T00:28:34;44.87;;;29.63;;
49109;SDS011;34921;52.320;16.142;2022-10-30T00:31:02;44.88;;;29.12;;
49109;SDS011;34921;52.320;16.142;2022-10-30T00:33:31;46.42;;;30.05;;
49109;SDS011;34921;52.320;16.142;2022-10-30T00:35:59;51.70;;;30.32;;
49109;SDS011;34921;52.320;16.142;2022-10-30T00:38:27;53.63;;;29.95;;
49109;SDS011;34921;52.320;16.142;2022-10-30T00:40:55;48.37;;;29.73;;
49109;SDS011;34921;52.320;16.142;2022-10-30T00:43:27;55.52;;;30.00;;
49109;SDS011;34921;52.320;16.142;2022-10-30T00:45:57;48.47;;;28.70;;
49109;SDS011;34921;52.320;16.142;2022-10-30T00:48:29;50.67;;;29.75;;
49109;SDS011;34921;52.320;16.142;2022-10-30T00:50:57;47.23;;;27.85;;
49109;SDS011;34921;52.320;16.142;2022-10-30T00:53:26;47.20;;;28.47;;
49109;SDS011;34921;52.320;16.142;2022-10-30T00:55:56;47.48;;;28.35;;
49109;SDS011;34921;52.320;16.142;2022-10-30T00:58:35;54.13;;;29.77;;
49109;SDS011;34921;52.320;16.142;2022-10-30T01:01:10;45.17;;;28.42;;
49109;SDS011;34921;52.320;16.142;2022-10-30T01:03:41;52.05;;;30.85;;
49109;SDS011;34921;52.320;16.142;2022-10-30T01:06:09;49.00;;;29.52;;
49109;SDS011;34921;52.320;16.142;2022-10-30T01:08:39;43.28;;;28.50;;
49109;SDS011;34921;52.320;16.142;2022-10-30T01:11:07;54.30;;;29.52;;
49109;SDS011;34921;52.320;16.142;2022-10-30T01:13:36;48.30;;;28.47;;
49109;SDS011;34921;52.320;16.142;2022-10-30T01:27:36;43.70;;;25.50;;
49109;SDS011;34921;52.320;16.142;2022-10-30T01:35:43;42.05;;;25.45;;
49109;SDS011;34921;52.320;16.142;2022-10-30T01:38:25;40.45;;;24.87;;
49109;SDS011;34921;52.320;16.142;2022-10-30T01:40:58;40.35;;;24.72;;
49109;SDS011;34921;52.320;16.142;2022-10-30T01:43:26;40.28;;;25.23;;
49109;SDS011;34921;52.320;16.142;2022-10-30T02:00:01;35.80;;;22.77;;
49109;SDS011;34921;52.320;16.142;2022-10-30T02:02:35;33.65;;;22.73;;
49109;SDS011;34921;52.320;16.142;2022-10-30T02:05:04;40.30;;;24.20;;
49109;SDS011;34921;52.320;16.142;2022-10-30T02:07:34;38.35;;;23.38;;
49109;SDS011;34921;52.320;16.142;2022-10-30T02:10:02;36.17;;;24.20;;
49109;SDS011;34921;52.320;16.142;2022-10-30T02:12:31;35.92;;;23.75;;
49109;SDS011;34921;52.320;16.142;2022-10-30T02:14:59;34.95;;;23.32;;
49109;SDS011;34921;52.320;16.142;2022-10-30T02:17:27;36.23;;;23.57;;
49109;SDS011;34921;52.320;16.142;2022-10-30T02:19:55;38.55;;;24.92;;
49109;SDS011;34921;52.320;16.142;2022-10-30T02:22:22;38.05;;;24.00;;
49109;SDS011;34921;52.320;16.142;2022-10-30T02:24:51;38.30;;;24.80;;
49109;SDS011;34921;52.320;16.142;2022-10-30T02:27:19;33.67;;;23.10;;
49109;SDS011;34921;52.320;16.142;2022-10-30T02:29:46;40.00;;;23.40;;
49109;SDS011;34921;52.320;16.142;2022-10-30T02:32:15;35.55;;;23.65;;
49109;SDS011;34921;52.320;16.142;2022-10-30T02:34:43;33.80;;;22.58;;
49109;SDS011;34921;52.320;16.142;2022-10-30T02:37:11;39.45;;;22.80;;
49109;SDS011;34921;52.320;16.142;2022-10-30T02:39:39;36.85;;;22.73;;
49109;SDS011;34921;52.320;16.142;2022-10-30T02:42:06;40.00;;;23.75;;
49109;SDS011;34921;52.320;16.142;2022-10-30T02:44:34;38.53;;;22.77;;
49109;SDS011;34921;52.320;16.142;2022-10-30T02:47:02;45.55;;;25.90;;
49109;SDS011;34921;52.320;16.142;2022-10-30T02:49:30;45.45;;;25.92;;
49109;SDS011;34921;52.320;16.142;2022-10-30T02:51:57;41.10;;;23.52;;
49109;SDS011;34921;52.320;16.142;2022-10-30T02:54:25;41.70;;;24.27;;
49109;SDS011;34921;52.320;16.142;2022-10-30T02:56:53;39.73;;;24.98;;
49109;SDS011;34921;52.320;16.142;2022-10-30T02:59:21;46.18;;;25.82;;
49109;SDS011;34921;52.320;16.142;2022-10-30T03:01:48;44.53;;;24.67;;
49109;SDS011;34921;52.320;16.142;2022-10-30T03:04:16;42.00;;;24.70;;
49109;SDS011;34921;52.320;16.142;2022-10-30T03:06:44;41.42;;;25.85;;
49109;SDS011;34921;52.320;16.142;2022-10-30T03:09:12;48.00;;;25.90;;
49109;SDS011;34921;52.320;16.142;2022-10-30T03:11:39;43.60;;;26.25;;
49109;SDS011;34921;52.320;16.142;2022-10-30T03:14:07;39.35;;;25.15;;
49109;SDS011;34921;52.320;16.142;2022-10-30T03:16:35;40.50;;;24.80;;
49109;SDS011;34921;52.320;16.142;2022-10-30T03:19:03;38.83;;;24.47;;
49109;SDS011;34921;52.320;16.142;2022-10-30T03:21:31;41.48;;;24.63;;
49109;SDS011;34921;52.320;16.142;2022-10-30T03:23:59;46.23;;;25.00;;
49109;SDS011;34921;52.320;16.142;2022-10-30T03:26:27;36.90;;;24.12;;
49109;SDS011;34921;52.320;16.142;2022-10-30T03:28:55;38.85;;;22.95;;
49109;SDS011;34921;52.320;16.142;2022-10-30T03:31:23;35.88;;;22.93;;
49109;SDS011;34921;52.320;16.142;2022-10-30T03:33:51;40.85;;;24.40;;
49109;SDS011;34921;52.320;16.142;2022-10-30T03:36:19;40.48;;;23.98;;
49109;SDS011;34921;52.320;16.142;2022-10-30T03:38:47;39.67;;;23.45;;
49109;SDS011;34921;52.320;16.142;2022-10-30T03:41:14;41.33;;;24.10;;
49109;SDS011;34921;52.320;16.142;2022-10-30T03:43:42;43.47;;;23.90;;
49109;SDS011;34921;52.320;16.142;2022-10-30T03:46:10;44.65;;;25.05;;
49109;SDS011;34921;52.320;16.142;2022-10-30T03:48:38;46.83;;;26.43;;
49109;SDS011;34921;52.320;16.142;2022-10-30T03:51:05;48.50;;;25.88;;
49109;SDS011;34921;52.320;16.142;2022-10-30T03:53:33;46.83;;;25.82;;
49109;SDS011;34921;52.320;16.142;2022-10-30T03:56:02;47.50;;;25.87;;
49109;SDS011;34921;52.320;16.142;2022-10-30T03:58:31;45.33;;;26.15;;
49109;SDS011;34921;52.320;16.142;2022-10-30T04:00:59;48.38;;;25.55;;
49109;SDS011;34921;52.320;16.142;2022-10-30T04:03:31;43.30;;;23.87;;
49109;SDS011;34921;52.320;16.142;2022-10-30T04:05:59;44.77;;;25.65;;
49109;SDS011;34921;52.320;16.142;2022-10-30T04:08:27;40.25;;;24.40;;
49109;SDS011;34921;52.320;16.142;2022-10-30T04:10:55;46.33;;;25.25;;
49109;SDS011;34921;52.320;16.142;2022-10-30T04:13:22;40.20;;;24.40;;
49109;SDS011;34921;52.320;16.142;2022-10-30T04:15:50;42.73;;;24.10;;
49109;SDS011;34921;52.320;16.142;2022-10-30T04:18:18;40.75;;;25.37;;
49109;SDS011;34921;52.320;16.142;2022-10-30T04:20:46;41.63;;;24.70;;
49109;SDS011;34921;52.320;16.142;2022-10-30T04:23:16;41.70;;;24.47;;
49109;SDS011;34921;52.320;16.142;2022-10-30T04:25:44;45.58;;;25.52;;
49109;SDS011;34921;52.320;16.142;2022-10-30T04:28:13;42.50;;;25.15;;
49109;SDS011;34921;52.320;16.142;2022-10-30T04:30:41;42.50;;;25.07;;
49109;SDS011;34921;52.320;16.142;2022-10-30T04:33:10;42.78;;;24.07;;
49109;SDS011;34921;52.320;16.142;2022-10-30T04:35:39;38.63;;;23.12;;
49109;SDS011;34921;52.320;16.142;2022-10-30T04:38:11;38.95;;;22.87;;
49109;SDS011;34921;52.320;16.142;2022-10-30T04:40:41;37.10;;;23.20;;
49109;SDS011;34921;52.320;16.142;2022-10-30T04:43:09;34.98;;;22.85;;
49109;SDS011;34921;52.320;16.142;2022-10-30T04:45:38;32.70;;;21.80;;
49109;SDS011;34921;52.320;16.142;2022-10-30T04:50:36;32.03;;;20.62;;
49109;SDS011;34921;52.320;16.142;2022-10-30T04:53:15;29.00;;;20.02;;
49109;SDS011;34921;52.320;16.142;2022-10-30T04:55:44;28.83;;;19.30;;
49109;SDS011;34921;52.320;16.142;2022-10-30T04:58:13;25.85;;;19.30;;
49109;SDS011;34921;52.320;16.142;2022-10-30T05:00:41;28.00;;;18.55;;
49109;SDS011;34921;52.320;16.142;2022-10-30T05:03:10;27.40;;;19.30;;
49109;SDS011;34921;52.320;16.142;2022-10-30T05:06:01;24.55;;;17.12;;
49109;SDS011;34921;52.320;16.142;2022-10-30T05:08:30;29.92;;;19.12;;
49109;SDS011;34921;52.320;16.142;2022-10-30T05:10:58;26.43;;;17.47;;
49109;SDS011;34921;52.320;16.142;2022-10-30T05:13:26;25.95;;;17.73;;
49109;SDS011;34921;52.320;16.142;2022-10-30T05:15:54;23.70;;;17.55;;
49109;SDS011;34921;52.320;16.142;2022-10-30T05:18:22;27.77;;;18.45;;
49109;SDS011;34921;52.320;16.142;2022-10-30T05:20:49;26.77;;;18.37;;
49109;SDS011;34921;52.320;16.142;2022-10-30T05:23:17;27.10;;;18.70;;
49109;SDS011;34921;52.320;16.142;2022-10-30T05:25:45;27.00;;;18.45;;
49109;SDS011;34921;52.320;16.142;2022-10-30T05:28:13;28.02;;;18.10;;
49109;SDS011;34921;52.320;16.142;2022-10-30T05:30:40;28.67;;;19.70;;
49109;SDS011;34921;52.320;16.142;2022-10-30T05:33:09;26.12;;;17.80;;
49109;SDS011;34921;52.320;16.142;2022-10-30T05:35:37;30.40;;;18.50;;
49109;SDS011;34921;52.320;16.142;2022-10-30T05:38:06;33.55;;;19.32;;
49109;SDS011;34921;52.320;16.142;2022-10-30T05:40:34;29.48;;;17.50;;
49109;SDS011;34921;52.320;16.142;2022-10-30T05:43:02;31.55;;;17.73;;
49109;SDS011;34921;52.320;16.142;2022-10-30T05:45:31;28.32;;;18.10;;
49109;SDS011;34921;52.320;16.142;2022-10-30T05:48:00;32.55;;;18.32;;
49109;SDS011;34921;52.320;16.142;2022-10-30T05:50:29;35.85;;;18.95;;
49109;SDS011;34921;52.320;16.142;2022-10-30T05:52:58;33.07;;;18.90;;
49109;SDS011;34921;52.320;16.142;2022-10-30T05:55:27;34.83;;;19.48;;
49109;SDS011;34921;52.320;16.142;2022-10-30T05:57:56;33.02;;;18.50;;
49109;SDS011;34921;52.320;16.142;2022-10-30T06:00:25;27.55;;;17.50;;
49109;SDS011;34921;52.320;16.142;2022-10-30T06:02:58;31.97;;;18.20;;
49109;SDS011;34921;52.320;16.142;2022-10-30T06:05:30;31.82;;;19.00;;
49109;SDS011;34921;52.320;16.142;2022-10-30T06:07:58;30.92;;;18.80;;
49109;SDS011;34921;52.320;16.142;2022-10-30T06:10:27;36.65;;;20.25;;
49109;SDS011;34921;52.320;16.142;2022-10-30T06:12:55;33.40;;;21.20;;
49109;SDS011;34921;52.320;16.142;2022-10-30T06:15:25;40.25;;;23.50;;
49109;SDS011;34921;52.320;16.142;2022-10-30T06:17:54;38.63;;;22.40;;
49109;SDS011;34921;52.320;16.142;2022-10-30T06:20:23;38.05;;;21.45;;
49109;SDS011;34921;52.320;16.142;2022-10-30T06:22:56;32.85;;;20.17;;
49109;SDS011;34921;52.320;16.142;2022-10-30T06:25:29;32.55;;;21.40;;
49109;SDS011;34921;52.320;16.142;2022-10-30T06:27:58;31.70;;;20.77;;
49109;SDS011;34921;52.320;16.142;2022-10-30T06:30:27;32.42;;;20.02;;
49109;SDS011;34921;52.320;16.142;2022-10-30T06:32:58;33.02;;;22.60;;
49109;SDS011;34921;52.320;16.142;2022-10-30T06:35:27;37.03;;;21.90;;
49109;SDS011;34921;52.320;16.142;2022-10-30T06:37:56;37.78;;;21.85;;
49109;SDS011;34921;52.320;16.142;2022-10-30T06:40:27;32.45;;;21.07;;
49109;SDS011;34921;52.320;16.142;2022-10-30T06:42:58;32.17;;;20.90;;
49109;SDS011;34921;52.320;16.142;2022-10-30T06:45:26;32.93;;;21.25;;
49109;SDS011;34921;52.320;16.142;2022-10-30T06:47:53;34.20;;;21.68;;
49109;SDS011;34921;52.320;16.142;2022-10-30T06:50:21;34.85;;;22.90;;
49109;SDS011;34921;52.320;16.142;2022-10-30T06:52:50;35.03;;;24.00;;
49109;SDS011;34921;52.320;16.142;2022-10-30T06:55:18;33.70;;;22.82;;
49109;SDS011;34921;52.320;16.142;2022-10-30T06:57:52;31.77;;;22.77;;
49109;SDS011;34921;52.320;16.142;2022-10-30T07:00:20;33.88;;;22.10;;
49109;SDS011;34921;52.320;16.142;2022-10-30T07:02:58;30.72;;;21.35;;
49109;SDS011;34921;52.320;16.142;2022-10-30T07:05:27;32.73;;;22.60;;
49109;SDS011;34921;52.320;16.142;2022-10-30T07:07:55;38.33;;;24.92;;
49109;SDS011;34921;52.320;16.142;2022-10-30T07:10:24;38.80;;;31.12;;
49109;SDS011;34921;52.320;16.142;2022-10-30T07:12:53;59.55;;;40.78;;
49109;SDS011;34921;52.320;16.142;2022-10-30T07:15:21;50.00;;;41.55;;
49109;SDS011;34921;52.320;16.142;2022-10-30T07:17:56;49.95;;;40.45;;
49109;SDS011;34921;52.320;16.142;2022-10-30T07:20:26;47.13;;;38.15;;
49109;SDS011;34921;52.320;16.142;2022-10-30T07:22:55;39.78;;;27.50;;
49109;SDS011;34921;52.320;16.142;2022-10-30T07:25:23;29.18;;;20.70;;
49109;SDS011;34921;52.320;16.142;2022-10-30T07:27:52;29.32;;;20.48;;
49109;SDS011;34921;52.320;16.142;2022-10-30T07:33:00;27.50;;;19.32;;
49109;SDS011;34921;52.320;16.142;2022-10-30T07:38:17;26.93;;;18.80;;
49109;SDS011;34921;52.320;16.142;2022-10-30T07:40:50;25.48;;;17.62;;
49109;SDS011;34921;52.320;16.142;2022-10-30T07:43:20;23.42;;;16.52;;
49109;SDS011;34921;52.320;16.142;2022-10-30T07:45:48;29.55;;;17.70;;
49109;SDS011;34921;52.320;16.142;2022-10-30T07:48:16;28.30;;;17.42;;
49109;SDS011;34921;52.320;16.142;2022-10-30T07:50:44;26.45;;;18.98;;
49109;SDS011;34921;52.320;16.142;2022-10-30T07:53:12;30.35;;;20.12;;
49109;SDS011;34921;52.320;16.142;2022-10-30T07:55:41;29.72;;;19.52;;
49109;SDS011;34921;52.320;16.142;2022-10-30T07:58:09;32.78;;;19.65;;
49109;SDS011;34921;52.320;16.142;2022-10-30T08:00:37;26.52;;;18.48;;
49109;SDS011;34921;52.320;16.142;2022-10-30T08:03:05;25.35;;;18.15;;
49109;SDS011;34921;52.320;16.142;2022-10-30T08:05:33;27.60;;;18.67;;
49109;SDS011;34921;52.320;16.142;2022-10-30T08:08:01;26.20;;;17.87;;
49109;SDS011;34921;52.320;16.142;2022-10-30T08:10:29;26.42;;;17.45;;
49109;SDS011;34921;52.320;16.142;2022-10-30T08:12:57;28.35;;;18.48;;
49109;SDS011;34921;52.320;16.142;2022-10-30T08:15:26;30.88;;;20.77;;
49109;SDS011;34921;52.320;16.142;2022-10-30T08:17:54;35.17;;;22.00;;
49109;SDS011;34921;52.320;16.142;2022-10-30T08:20:23;35.17;;;22.67;;
49109;SDS011;34921;52.320;16.142;2022-10-30T08:22:52;30.45;;;22.70;;
49109;SDS011;34921;52.320;16.142;2022-10-30T08:27:58;35.67;;;25.10;;
49109;SDS011;34921;52.320;16.142;2022-10-30T08:30:38;36.17;;;25.10;;
49109;SDS011;34921;52.320;16.142;2022-10-30T08:33:09;32.20;;;23.15;;
49109;SDS011;34921;52.320;16.142;2022-10-30T08:35:46;31.37;;;20.95;;
49109;SDS011;34921;52.320;16.142;2022-10-30T08:38:19;35.10;;;21.75;;
49109;SDS011;34921;52.320;16.142;2022-10-30T08:40:47;33.98;;;22.05;;
49109;SDS011;34921;52.320;16.142;2022-10-30T08:43:15;32.42;;;21.82;;
49109;SDS011;34921;52.320;16.142;2022-10-30T08:45:43;34.50;;;21.05;;
49109;SDS011;34921;52.320;16.142;2022-10-30T08:48:13;31.20;;;21.48;;
49109;SDS011;34921;52.320;16.142;2022-10-30T08:53:11;31.87;;;19.98;;
49109;SDS011;34921;52.320;16.142;2022-10-30T08:55:40;29.93;;;19.53;;
49109;SDS011;34921;52.320;16.142;2022-10-30T08:58:09;30.08;;;18.05;;
49109;SDS011;34921;52.320;16.142;2022-10-30T09:00:37;24.95;;;17.82;;
49109;SDS011;34921;52.320;16.142;2022-10-30T09:03:06;29.95;;;18.80;;
49109;SDS011;34921;52.320;16.142;2022-10-30T09:05:35;32.28;;;18.35;;
49109;SDS011;34921;52.320;16.142;2022-10-30T09:08:03;30.27;;;18.37;;
49109;SDS011;34921;52.320;16.142;2022-10-30T09:10:31;28.65;;;18.98;;
49109;SDS011;34921;52.320;16.142;2022-10-30T09:12:59;26.60;;;17.32;;
49109;SDS011;34921;52.320;16.142;2022-10-30T09:15:29;29.15;;;17.17;;
49109;SDS011;34921;52.320;16.142;2022-10-30T09:17:57;25.08;;;16.93;;
49109;SDS011;34921;52.320;16.142;2022-10-30T09:20:30;25.60;;;16.62;;
49109;SDS011;34921;52.320;16.142;2022-10-30T09:22:58;25.75;;;15.70;;
49109;SDS011;34921;52.320;16.142;2022-10-30T09:25:26;25.40;;;15.20;;
49109;SDS011;34921;52.320;16.142;2022-10-30T09:27:55;23.73;;;14.85;;
49109;SDS011;34921;52.320;16.142;2022-10-30T09:30:23;22.20;;;14.47;;
49109;SDS011;34921;52.320;16.142;2022-10-30T09:32:58;23.15;;;15.05;;
49109;SDS011;34921;52.320;16.142;2022-10-30T09:35:28;23.67;;;14.25;;
49109;SDS011;34921;52.320;16.142;2022-10-30T09:37:57;22.40;;;13.83;;
49109;SDS011;34921;52.320;16.142;2022-10-30T09:51:44;25.40;;;14.58;;
49109;SDS011;34921;52.320;16.142;2022-10-30T09:57:24;26.23;;;14.60;;
49109;SDS011;34921;52.320;16.142;2022-10-30T10:00:14;28.00;;;16.48;;
49109;SDS011;34921;52.320;16.142;2022-10-30T10:05:47;22.37;;;14.90;;
49109;SDS011;34921;52.320;16.142;2022-10-30T10:08:22;27.30;;;14.98;;
49109;SDS011;34921;52.320;16.142;2022-10-30T10:10:56;29.55;;;17.15;;
49109;SDS011;34921;52.320;16.142;2022-10-30T10:16:20;29.48;;;15.58;;
49109;SDS011;34921;52.320;16.142;2022-10-30T10:18:56;25.37;;;15.98;;
49109;SDS011;34921;52.320;16.142;2022-10-30T10:21:52;27.02;;;17.70;;
49109;SDS011;34921;52.320;16.142;2022-10-30T10:52:08;24.65;;;15.18;;
49109;SDS011;34921;52.320;16.142;2022-10-30T10:54:58;23.27;;;15.10;;
49109;SDS011;34921;52.320;16.142;2022-10-30T10:57:33;20.43;;;15.20;;
49109;SDS011;34921;52.320;16.142;2022-10-30T11:00:05;26.07;;;14.63;;
49109;SDS011;34921;52.320;16.142;2022-10-30T11:08:33;27.05;;;15.18;;
49109;SDS011;34921;52.320;16.142;2022-10-30T11:11:05;21.52;;;14.05;;
49109;SDS011;34921;52.320;16.142;2022-10-30T11:13:35;20.12;;;14.38;;
49109;SDS011;34921;52.320;16.142;2022-10-30T11:18:52;21.40;;;14.70;;
49109;SDS011;34921;52.320;16.142;2022-10-30T11:21:23;23.70;;;14.78;;
49109;SDS011;34921;52.320;16.142;2022-10-30T11:23:52;25.57;;;15.28;;
49109;SDS011;34921;52.320;16.142;2022-10-30T11:33:56;25.65;;;15.93;;
49109;SDS011;34921;52.320;16.142;2022-10-30T11:36:25;24.00;;;15.80;;
49109;SDS011;34921;52.320;16.142;2022-10-30T11:38:53;27.70;;;15.85;;
49109;SDS011;34921;52.320;16.142;2022-10-30T11:41:24;26.35;;;16.40;;
49109;SDS011;34921;52.320;16.142;2022-10-30T11:43:52;38.58;;;29.92;;
49109;SDS011;34921;52.320;16.142;2022-10-30T11:46:21;24.00;;;17.92;;
49109;SDS011;34921;52.320;16.142;2022-10-30T11:48:50;29.37;;;15.33;;
49109;SDS011;34921;52.320;16.142;2022-10-30T11:51:31;31.73;;;18.40;;
49109;SDS011;34921;52.320;16.142;2022-10-30T11:54:04;28.85;;;16.50;;
49109;SDS011;34921;52.320;16.142;2022-10-30T11:56:33;29.90;;;16.10;;
49109;SDS011;34921;52.320;16.142;2022-10-30T11:59:02;29.85;;;20.02;;
49109;SDS011;34921;52.320;16.142;2022-10-30T12:01:34;20.90;;;13.80;;
49109;SDS011;34921;52.320;16.142;2022-10-30T12:04:25;21.65;;;15.03;;
49109;SDS011;34921;52.320;16.142;2022-10-30T12:09:42;35.58;;;21.48;;
49109;SDS011;34921;52.320;16.142;2022-10-30T12:12:25;27.30;;;16.77;;
49109;SDS011;34921;52.320;16.142;2022-10-30T12:15:06;25.30;;;15.80;;
49109;SDS011;34921;52.320;16.142;2022-10-30T12:17:36;24.27;;;18.07;;
49109;SDS011;34921;52.320;16.142;2022-10-30T12:20:04;25.60;;;20.52;;
49109;SDS011;34921;52.320;16.142;2022-10-30T12:22:34;27.42;;;17.15;;
49109;SDS011;34921;52.320;16.142;2022-10-30T12:25:03;24.98;;;16.73;;
49109;SDS011;34921;52.320;16.142;2022-10-30T12:27:34;109.95;;;64.55;;
49109;SDS011;34921;52.320;16.142;2022-10-30T12:30:13;81.30;;;48.52;;
49109;SDS011;34921;52.320;16.142;2022-10-30T12:38:25;32.70;;;21.57;;
49109;SDS011;34921;52.320;16.142;2022-10-30T12:40:59;27.25;;;18.40;;
49109;SDS011;34921;52.320;16.142;2022-10-30T12:43:28;24.65;;;15.75;;
49109;SDS011;34921;52.320;16.142;2022-10-30T12:57:21;36.65;;;25.60;;
49109;SDS011;34921;52.320;16.142;2022-10-30T12:59:55;34.95;;;23.75;;
49109;SDS011;34921;52.320;16.142;2022-10-30T13:02:59;33.13;;;22.90;;
49109;SDS011;34921;52.320;16.142;2022-10-30T13:05:37;30.60;;;20.43;;
49109;SDS011;34921;52.320;16.142;2022-10-30T13:11:01;23.25;;;15.30;;
49109;SDS011;34921;52.320;16.142;2022-10-30T13:13:37;30.52;;;19.70;;
49109;SDS011;34921;52.320;16.142;2022-10-30T13:16:11;51.18;;;31.95;;
49109;SDS011;34921;52.320;16.142;2022-10-30T13:18:42;43.40;;;27.93;;
49109;SDS011;34921;52.320;16.142;2022-10-30T13:26:30;37.33;;;21.75;;
49109;SDS011;34921;52.320;16.142;2022-10-30T13:53:47;23.05;;;15.53;;
49109;SDS011;34921;52.320;16.142;2022-10-30T13:56:26;23.67;;;14.07;;
49109;SDS011;34921;52.320;16.142;2022-10-30T14:02:02;24.60;;;14.87;;
49109;SDS011;34921;52.320;16.142;2022-10-30T14:10:15;26.23;;;17.35;;
49109;SDS011;34921;52.320;16.142;2022-10-30T14:12:50;26.43;;;19.60;;
49109;SDS011;34921;52.320;16.142;2022-10-30T14:20:44;21.60;;;13.03;;
49109;SDS011;34921;52.320;16.142;2022-10-30T14:26:19;23.07;;;13.72;;
49109;SDS011;34921;52.320;16.142;2022-10-30T14:28:44;22.60;;;14.75;;
49109;SDS011;34921;52.320;16.142;2022-10-30T14:31:12;23.27;;;14.00;;
49109;SDS011;34921;52.320;16.142;2022-10-30T14:36:19;21.52;;;14.65;;
49109;SDS011;34921;52.320;16.142;2022-10-30T14:38:54;24.57;;;16.12;;
49109;SDS011;34921;52.320;16.142;2022-10-30T14:55:16;24.40;;;16.93;;
49109;SDS011;34921;52.320;16.142;2022-10-30T15:13:28;23.65;;;14.45;;
49109;SDS011;34921;52.320;16.142;2022-10-30T15:16:06;27.15;;;15.30;;
49109;SDS011;34921;52.320;16.142;2022-10-30T15:18:35;26.90;;;16.12;;
49109;SDS011;34921;52.320;16.142;2022-10-30T15:21:06;28.98;;;16.07;;
49109;SDS011;34921;52.320;16.142;2022-10-30T15:23:35;27.30;;;16.77;;
49109;SDS011;34921;52.320;16.142;2022-10-30T15:26:04;39.85;;;23.52;;
49109;SDS011;34921;52.320;16.142;2022-10-30T15:28:33;42.70;;;27.80;;
49109;SDS011;34921;52.320;16.142;2022-10-30T15:33:34;52.05;;;31.62;;
49109;SDS011;34921;52.320;16.142;2022-10-30T15:36:04;43.80;;;29.03;;
49109;SDS011;34921;52.320;16.142;2022-10-30T15:38:32;48.92;;;29.20;;
49109;SDS011;34921;52.320;16.142;2022-10-30T15:41:01;45.40;;;28.75;;
49109;SDS011;34921;52.320;16.142;2022-10-30T15:43:33;61.92;;;34.80;;
49109;SDS011;34921;52.320;16.142;2022-10-30T15:46:13;62.58;;;36.45;;
49109;SDS011;34921;52.320;16.142;2022-10-30T15:48:43;79.22;;;41.05;;
49109;SDS011;34921;52.320;16.142;2022-10-30T15:51:14;80.95;;;42.35;;
49109;SDS011;34921;52.320;16.142;2022-10-30T15:53:50;78.57;;;41.70;;
49109;SDS011;34921;52.320;16.142;2022-10-30T15:59:05;74.92;;;41.98;;
49109;SDS011;34921;52.320;16.142;2022-10-30T16:01:34;75.42;;;42.45;;
49109;SDS011;34921;52.320;16.142;2022-10-30T16:04:15;82.50;;;44.98;;
49109;SDS011;34921;52.320;16.142;2022-10-30T16:06:51;79.67;;;44.75;;
49109;SDS011;34921;52.320;16.142;2022-10-30T16:09:21;91.02;;;49.53;;
49109;SDS011;34921;52.320;16.142;2022-10-30T16:11:51;103.70;;;52.78;;
49109;SDS011;34921;52.320;16.142;2022-10-30T16:14:23;112.42;;;57.10;;
49109;SDS011;34921;52.320;16.142;2022-10-30T16:16:57;102.45;;;54.03;;
49109;SDS011;34921;52.320;16.142;2022-10-30T16:19:29;99.13;;;48.60;;
49109;SDS011;34921;52.320;16.142;2022-10-30T16:21:59;94.70;;;50.33;;
49109;SDS011;34921;52.320;16.142;2022-10-30T16:24:31;130.90;;;62.78;;
49109;SDS011;34921;52.320;16.142;2022-10-30T16:27:14;122.25;;;60.45;;
49109;SDS011;34921;52.320;16.142;2022-10-30T16:29:45;114.37;;;60.15;;
49109;SDS011;34921;52.320;16.142;2022-10-30T16:32:15;108.15;;;56.42;;
49109;SDS011;34921;52.320;16.142;2022-10-30T16:37:19;81.10;;;45.75;;
49109;SDS011;34921;52.320;16.142;2022-10-30T16:39:49;78.22;;;43.58;;
49109;SDS011;34921;52.320;16.142;2022-10-30T16:42:25;80.75;;;44.45;;
49109;SDS011;34921;52.320;16.142;2022-10-30T16:45:04;70.85;;;40.30;;
49109;SDS011;34921;52.320;16.142;2022-10-30T16:48:07;66.10;;;39.23;;
49109;SDS011;34921;52.320;16.142;2022-10-30T16:50:46;58.08;;;33.88;;
49109;SDS011;34921;52.320;16.142;2022-10-30T16:53:17;59.53;;;33.85;;
49109;SDS011;34921;52.320;16.142;2022-10-30T16:55:47;59.30;;;32.42;;
49109;SDS011;34921;52.320;16.142;2022-10-30T16:58:15;46.88;;;27.45;;
49109;SDS011;34921;52.320;16.142;2022-10-30T17:00:51;47.98;;;29.35;;
49109;SDS011;34921;52.320;16.142;2022-10-30T17:03:23;45.80;;;27.50;;
49109;SDS011;34921;52.320;16.142;2022-10-30T17:05:55;43.75;;;26.30;;
49109;SDS011;34921;52.320;16.142;2022-10-30T17:08:26;48.60;;;29.73;;
49109;SDS011;34921;52.320;16.142;2022-10-30T17:11:15;47.83;;;26.70;;
49109;SDS011;34921;52.320;16.142;2022-10-30T17:16:22;42.65;;;27.80;;
49109;SDS011;34921;52.320;16.142;2022-10-30T17:18:53;46.05;;;28.47;;
49109;SDS011;34921;52.320;16.142;2022-10-30T17:21:44;49.63;;;27.75;;
49109;SDS011;34921;52.320;16.142;2022-10-30T17:24:17;42.25;;;27.25;;
49109;SDS011;34921;52.320;16.142;2022-10-30T17:26:56;47.70;;;27.93;;
49109;SDS011;34921;52.320;16.142;2022-10-30T17:32:18;54.50;;;31.60;;
49109;SDS011;34921;52.320;16.142;2022-10-30T17:34:51;55.05;;;32.78;;
49109;SDS011;34921;52.320;16.142;2022-10-30T17:37:22;54.63;;;33.90;;
49109;SDS011;34921;52.320;16.142;2022-10-30T17:39:50;59.67;;;32.15;;
49109;SDS011;34921;52.320;16.142;2022-10-30T17:42:18;52.53;;;31.00;;
49109;SDS011;34921;52.320;16.142;2022-10-30T17:44:46;49.05;;;30.52;;
49109;SDS011;34921;52.320;16.142;2022-10-30T17:47:16;50.85;;;30.27;;
49109;SDS011;34921;52.320;16.142;2022-10-30T17:49:45;50.43;;;29.63;;
49109;SDS011;34921;52.320;16.142;2022-10-30T17:52:16;49.27;;;29.53;;
49109;SDS011;34921;52.320;16.142;2022-10-30T17:54:47;52.65;;;27.80;;
49109;SDS011;34921;52.320;16.142;2022-10-30T17:57:15;39.40;;;26.00;;
49109;SDS011;34921;52.320;16.142;2022-10-30T17:59:43;40.80;;;25.90;;
49109;SDS011;34921;52.320;16.142;2022-10-30T18:02:15;39.55;;;25.48;;
49109;SDS011;34921;52.320;16.142;2022-10-30T18:04:45;37.23;;;23.80;;
49109;SDS011;34921;52.320;16.142;2022-10-30T18:07:14;38.73;;;23.83;;
49109;SDS011;34921;52.320;16.142;2022-10-30T18:09:43;38.40;;;23.07;;
49109;SDS011;34921;52.320;16.142;2022-10-30T18:12:12;33.75;;;20.43;;